Time;durP1;ratioP1;P1;durP2;ratioP2;P2;SDS_P1;SDS_P2;PMS_P1;PMS_P2;Temp;Humidity;BMP_temperature;BMP_pressure;BME280_temperature;BME280_humidity;BME280_pressure;Samples;Min_cycle;Max_cycle;Signal;HPM_P1;HPM_P2
2023/01/01 00:02:13;;;;;;;31.15;10.93;;;;;;;16.13;71.45;100581.47;5096799;28;20047;-77
2023/01/01 00:04:39;;;;;;;21.55;8.75;;;;;;;16.05;71.64;100573.09;5114654;28;20160;-78
2023/01/01 00:07:04;;;;;;;15.27;6.63;;;;;;;16.20;69.92;100581.66;5095833;28;20032;-78
2023/01/01 00:12:19;;;;;;;34.17;10.68;;;;;;;16.16;70.39;100591.31;5114811;28;20042;-78
2023/01/01 00:15:02;;;;;;;26.02;6.03;;;;;;;16.07;70.03;100586.75;5083268;28;20092;-80
2023/01/01 00:17:28;;;;;;;18.00;7.10;;;;;;;16.16;69.69;100586.63;5085074;28;20035;-78
2023/01/01 00:19:54;;;;;;;18.17;5.10;;;;;;;15.96;70.84;100583.25;5108565;28;20077;-78
2023/01/01 00:22:19;;;;;;;13.90;4.10;;;;;;;15.93;70.37;100586.34;5110225;28;20047;-77
2023/01/01 00:24:44;;;;;;;9.77;2.88;;;;;;;15.95;69.80;100584.31;5094677;28;20065;-78
2023/01/01 00:27:10;;;;;;;8.15;2.88;;;;;;;15.97;70.08;100587.75;5112717;28;20411;-78
2023/01/01 00:29:35;;;;;;;14.57;2.85;;;;;;;15.94;70.39;100587.22;5075518;28;20162;-78
2023/01/01 00:32:01;;;;;;;11.80;2.90;;;;;;;15.94;69.55;100587.22;5111673;28;20079;-78
2023/01/01 00:34:26;;;;;;;10.77;4.50;;;;;;;15.95;69.61;100599.97;5076754;28;20108;-77
2023/01/01 00:36:51;;;;;;;12.82;3.55;;;;;;;15.92;69.67;100592.00;5093457;28;20122;-77
2023/01/01 00:39:17;;;;;;;10.25;3.63;;;;;;;15.87;70.09;100603.56;5110152;28;20040;-78
2023/01/01 00:41:42;;;;;;;15.95;2.58;;;;;;;15.79;69.66;100586.97;5114242;28;20039;-78
2023/01/01 00:44:08;;;;;;;12.73;2.63;;;;;;;15.75;70.51;100591.88;5096356;28;20036;-78
2023/01/01 00:46:33;;;;;;;17.00;3.58;;;;;;;15.69;71.62;100592.53;5114799;27;20044;-78
2023/01/01 00:48:59;;;;;;;12.95;2.88;;;;;;;15.69;70.29;100595.31;5116255;27;20043;-78
2023/01/01 00:51:24;;;;;;;11.55;3.17;;;;;;;15.66;70.69;100590.09;5115489;28;20089;-78
2023/01/01 00:53:50;;;;;;;10.57;3.60;;;;;;;15.83;69.36;100580.06;5098783;28;20035;-78
2023/01/01 00:56:15;;;;;;;13.18;3.08;;;;;;;15.78;70.02;100590.72;5097635;28;20036;-77
2023/01/01 00:58:41;;;;;;;17.48;3.75;;;;;;;15.87;70.30;100595.28;5097925;28;20034;-77
2023/01/01 01:01:06;;;;;;;24.15;4.55;;;;;;;15.99;69.05;100593.97;5098296;28;20043;-78
2023/01/01 01:03:32;;;;;;;17.08;3.72;;;;;;;15.75;70.02;100588.25;5093070;28;20164;-78
2023/01/01 01:06:09;;;;;;;12.60;3.60;;;;;;;15.79;70.05;100592.47;5114114;27;20035;-77
2023/01/01 01:08:37;;;;;;;25.95;3.88;;;;;;;15.76;70.21;100592.78;5116849;28;20394;-78
2023/01/01 01:11:11;;;;;;;10.00;2.60;;;;;;;15.72;70.31;100596.88;5116479;27;20035;-78
2023/01/01 01:13:37;;;;;;;14.45;3.65;;;;;;;15.63;70.75;100596.81;5098311;28;20036;-78
2023/01/01 01:16:17;;;;;;;15.68;3.53;;;;;;;15.67;71.32;100602.00;5097372;28;20039;-78
2023/01/01 01:18:44;;;;;;;12.55;2.50;;;;;;;15.59;70.81;100592.66;5097913;28;20115;-78
2023/01/01 01:21:13;;;;;;;6.55;1.90;;;;;;;15.57;71.52;100597.44;5120118;27;20034;-78
2023/01/01 01:23:38;;;;;;;9.20;2.20;;;;;;;15.50;70.76;100603.78;5099976;28;20114;-78
2023/01/01 01:26:19;;;;;;;14.65;2.15;;;;;;;15.50;70.12;100592.75;5099576;28;20517;-78
2023/01/01 01:28:44;;;;;;;11.18;1.90;;;;;;;15.53;70.01;100598.81;5112400;28;20111;-76
2023/01/01 01:31:11;;;;;;;8.20;1.65;;;;;;;15.37;70.18;100616.06;5123775;27;20073;-76
2023/01/01 01:33:36;;;;;;;11.70;1.90;;;;;;;15.47;70.09;100616.00;5118366;27;20031;-77
2023/01/01 01:36:03;;;;;;;13.43;2.28;;;;;;;15.45;69.98;100623.56;5134036;27;20087;-77
2023/01/01 01:38:29;;;;;;;5.72;1.85;;;;;;;15.44;69.55;100616.31;5109914;27;20032;-76
2023/01/01 01:40:54;;;;;;;8.65;2.05;;;;;;;15.52;68.49;100608.09;5115903;27;20046;-78
2023/01/01 01:43:32;;;;;;;8.38;2.00;;;;;;;15.39;69.71;100622.28;5135916;27;20031;-77
2023/01/01 01:46:03;;;;;;;6.07;2.00;;;;;;;15.62;68.18;100608.84;5117428;27;20043;-76
2023/01/01 01:48:36;;;;;;;9.45;1.98;;;;;;;15.63;68.11;100610.59;5098850;27;20075;-77
2023/01/01 01:51:02;;;;;;;11.98;2.13;;;;;;;15.57;69.06;100630.56;5117218;27;20501;-76
2023/01/01 01:53:34;;;;;;;14.63;2.28;;;;;;;15.56;68.62;100639.88;5117591;27;20035;-77
2023/01/01 01:56:03;;;;;;;21.40;2.47;;;;;;;15.49;68.38;100636.00;5133574;27;20118;-77
2023/01/01 01:58:30;;;;;;;9.00;1.90;;;;;;;15.46;69.32;100628.03;5133478;27;20031;-77
2023/01/01 02:00:56;;;;;;;9.68;1.98;;;;;;;15.47;69.49;100639.97;5134706;27;20478;-77
2023/01/01 02:03:23;;;;;;;19.77;2.58;;;;;;;15.62;68.78;100641.97;5114684;27;20027;-77
2023/01/01 02:05:50;;;;;;;8.43;2.10;;;;;;;15.40;68.77;100639.75;5116823;27;20478;-77
2023/01/01 02:08:16;;;;;;;15.93;4.32;;;;;;;15.37;69.08;100632.63;5132958;27;20035;-77
2023/01/01 02:10:42;;;;;;;11.07;2.10;;;;;;;15.32;70.35;100635.00;5099411;27;20172;-77
2023/01/01 02:13:08;;;;;;;12.48;1.98;;;;;;;15.39;69.54;100640.75;5120194;27;20080;-77
2023/01/01 02:15:54;;;;;;;15.90;2.35;;;;;;;15.30;69.88;100655.47;5134421;27;20076;-77
2023/01/01 02:18:35;;;;;;;9.38;2.00;;;;;;;15.36;70.46;100644.69;5133173;27;20035;-77
2023/01/01 02:21:15;;;;;;;8.77;1.90;;;;;;;15.35;69.94;100659.50;5121974;27;20109;-77
2023/01/01 02:24:29;;;;;;;9.43;1.90;;;;;;;15.45;68.59;100664.97;5132473;27;20031;-77
2023/01/01 02:27:37;;;;;;;12.38;2.17;;;;;;;15.66;69.00;100652.69;5088446;27;20447;-77
2023/01/01 02:30:05;;;;;;;7.82;2.08;;;;;;;15.33;69.79;100646.88;5085274;27;20047;-77
2023/01/01 02:32:48;;;;;;;10.18;1.90;;;;;;;15.28;69.78;100658.38;5131382;27;20817;-77
2023/01/01 02:35:37;;;;;;;10.02;1.80;;;;;;;15.35;69.29;100664.19;5099135;27;20039;-77
2023/01/01 02:38:25;;;;;;;12.73;1.95;;;;;;;15.36;70.00;100680.53;5115222;27;20058;-77
2023/01/01 02:40:56;;;;;;;12.35;1.60;;;;;;;15.36;69.55;100676.94;5116458;27;20035;-77
2023/01/01 02:43:21;;;;;;;13.10;1.85;;;;;;;15.28;70.11;100674.09;5133709;27;20497;-77
2023/01/01 02:45:47;;;;;;;5.88;1.67;;;;;;;15.28;70.38;100647.34;5143942;27;20039;-77
2023/01/01 02:48:34;;;;;;;7.88;1.60;;;;;;;15.53;69.20;100669.69;5105807;27;20031;-77
2023/01/01 02:51:08;;;;;;;6.60;1.77;;;;;;;15.51;69.55;100660.69;5135211;27;20030;-77
2023/01/01 02:53:40;;;;;;;9.10;1.40;;;;;;;15.47;69.65;100646.34;5087628;28;20038;-77
2023/01/01 02:56:42;;;;;;;8.50;1.33;;;;;;;15.54;69.85;100655.72;5097337;27;20023;-77
2023/01/01 03:02:45;;;;;;;13.85;1.73;;;;;;;15.10;72.23;100644.59;5113970;27;20043;-78
2023/01/01 03:06:21;;;;;;;8.75;2.10;;;;;;;15.19;72.30;100640.03;5130189;27;20490;-78
2023/01/01 03:08:33;;;;;;;6.00;1.50;;;;;;;15.18;73.09;100646.56;5114240;27;20066;-77
2023/01/01 03:11:09;;;;;;;2.20;1.02;;;;;;;15.18;72.47;100649.34;5095639;27;20288;-77
2023/01/01 03:13:38;;;;;;;7.22;1.25;;;;;;;15.00;74.09;100646.56;5133105;27;20039;-77
2023/01/01 03:16:30;;;;;;;10.00;1.60;;;;;;;15.00;74.18;100658.47;5133162;27;20035;-77
2023/01/01 03:19:11;;;;;;;8.10;1.70;;;;;;;15.15;75.02;100664.31;5115385;27;20030;-77
2023/01/01 03:21:51;;;;;;;13.15;1.63;;;;;;;15.15;75.05;100663.44;5098428;27;20026;-77
2023/01/01 03:24:24;;;;;;;8.48;1.38;;;;;;;15.17;75.84;100676.06;5134503;27;20039;-77
2023/01/01 03:26:52;;;;;;;;;;;;;;;15.01;77.00;100685.00;5116240;27;20027;-77
2023/01/01 03:29:21;;;;;;;8.70;1.33;;;;;;;14.98;76.75;100682.56;5098011;27;19919;-77
2023/01/01 03:31:49;;;;;;;9.55;2.25;;;;;;;15.17;75.98;100684.31;5095742;27;20051;-77
2023/01/01 03:34:21;;;;;;;13.60;2.13;;;;;;;15.08;76.80;100701.78;5094475;28;20550;-77
2023/01/01 03:36:51;;;;;;;12.10;1.60;;;;;;;14.94;77.67;100688.53;5133810;27;20101;-77
2023/01/01 03:39:37;;;;;;;9.25;2.13;;;;;;;15.09;77.23;100691.66;5135560;27;20020;-76
2023/01/01 03:42:14;;;;;;;9.93;1.75;;;;;;;15.00;77.54;100677.78;5116147;28;20386;-77
2023/01/01 03:44:47;;;;;;;5.30;1.40;;;;;;;15.01;77.74;100673.97;5087416;27;20494;-77
2023/01/01 03:47:13;;;;;;;10.65;1.20;;;;;;;14.97;78.57;100694.63;5132176;27;20031;-77
2023/01/01 03:49:39;;;;;;;11.88;1.40;;;;;;;14.95;78.82;100690.28;5133408;27;20410;-77
2023/01/01 03:52:17;;;;;;;5.07;1.50;;;;;;;14.97;79.34;100679.94;5133129;28;20027;-77
2023/01/01 03:55:07;;;;;;;4.57;1.48;;;;;;;15.00;79.52;100687.91;5126382;27;20482;-76
2023/01/01 03:57:47;;;;;;;8.73;1.40;;;;;;;14.95;79.65;100695.78;5134657;28;20031;-76
2023/01/01 04:00:22;;;;;;;8.00;1.23;;;;;;;14.94;80.69;100705.06;5099201;27;20032;-76
2023/01/01 04:02:59;;;;;;;9.70;1.60;;;;;;;14.88;82.09;100701.91;5134634;28;20031;-77
2023/01/01 04:05:26;;;;;;;7.05;1.85;;;;;;;14.82;82.55;100720.94;5112448;28;20447;-76
2023/01/01 04:07:53;;;;;;;6.70;1.30;;;;;;;14.83;82.40;100709.78;5095839;28;20035;-77
2023/01/01 04:10:19;;;;;;;8.13;1.40;;;;;;;14.81;83.56;100699.94;5100657;28;20023;-76
2023/01/01 04:12:50;;;;;;;6.97;1.20;;;;;;;14.79;84.02;100708.38;5114868;28;20096;-76
2023/01/01 04:15:22;;;;;;;6.65;1.55;;;;;;;14.85;83.40;100693.09;5130527;28;20038;-76
2023/01/01 04:17:48;;;;;;;7.70;1.40;;;;;;;14.87;83.87;100691.03;5119394;27;20046;-77
2023/01/01 04:20:14;;;;;;;9.02;1.45;;;;;;;14.87;84.42;100722.25;5119219;27;20502;-78
2023/01/01 04:22:40;;;;;;;12.70;1.67;;;;;;;14.86;85.18;100726.00;5119155;27;20030;-77
2023/01/01 04:25:06;;;;;;;10.43;1.60;;;;;;;14.82;88.05;100730.13;5138039;27;20035;-77
2023/01/01 04:27:32;;;;;;;6.18;1.30;;;;;;;14.79;91.07;100718.50;5090530;27;20031;-77
2023/01/01 04:29:57;;;;;;;5.00;1.63;;;;;;;14.58;97.74;100730.59;5098667;28;20409;-77
2023/01/01 04:32:22;;;;;;;8.82;1.80;;;;;;;14.58;98.29;100729.75;5128228;27;20522;-77
2023/01/01 04:34:48;;;;;;;6.10;1.60;;;;;;;14.47;100.00;100711.50;5118634;27;20035;-77
2023/01/01 04:37:13;;;;;;;8.73;1.73;;;;;;;14.53;100.00;100698.00;5101855;27;20398;-77
2023/01/01 04:39:40;;;;;;;8.00;1.85;;;;;;;14.57;100.00;100686.66;5099437;27;20042;-77
2023/01/01 04:42:05;;;;;;;11.25;1.50;;;;;;;14.61;100.00;100700.03;5119311;27;20027;-77
2023/01/01 04:44:31;;;;;;;12.57;3.67;;;;;;;14.51;100.00;100693.63;5134791;27;20088;-77
2023/01/01 04:46:56;;;;;;;8.18;1.48;;;;;;;14.56;100.00;100690.44;5137697;27;20486;-77
2023/01/01 04:49:22;;;;;;;6.45;1.40;;;;;;;14.55;100.00;100705.25;5083048;27;20035;-77
2023/01/01 04:51:47;;;;;;;8.30;1.35;;;;;;;14.61;100.00;100732.22;5101495;27;20027;-77
2023/01/01 04:54:13;;;;;;;9.43;2.00;;;;;;;14.51;100.00;100726.69;5117795;27;20031;-77
2023/01/01 04:56:38;;;;;;;6.93;1.55;;;;;;;14.65;100.00;100739.16;5118001;27;20394;-77
2023/01/01 04:59:03;;;;;;;8.05;1.80;;;;;;;14.57;100.00;100730.75;5111568;27;20039;-77
2023/01/01 05:01:29;;;;;;;5.13;1.50;;;;;;;14.59;100.00;100736.97;5117727;27;20023;-77
2023/01/01 05:03:55;;;;;;;5.95;1.58;;;;;;;14.60;99.04;100742.38;5135884;27;20027;-76
2023/01/01 05:06:22;;;;;;;3.75;1.30;;;;;;;14.61;99.63;100744.13;5117109;27;20027;-77
2023/01/01 05:08:50;;;;;;;10.65;1.52;;;;;;;14.76;98.36;100727.06;5097550;27;20394;-77
2023/01/01 05:11:18;;;;;;;10.82;2.22;;;;;;;14.66;100.00;100718.88;5118190;27;20023;-77
2023/01/01 05:13:46;;;;;;;7.35;1.20;;;;;;;14.62;100.00;100736.72;5136710;27;20065;-77
2023/01/01 05:16:15;;;;;;;8.18;1.33;;;;;;;14.65;100.00;100742.78;5117329;27;20119;-77
2023/01/01 05:18:41;;;;;;;5.78;1.50;;;;;;;14.61;100.00;100754.25;5087714;27;20027;-77
2023/01/01 05:21:12;;;;;;;13.50;2.00;;;;;;;14.61;100.00;100771.69;5084416;27;20035;-77
2023/01/01 05:23:38;;;;;;;12.23;2.30;;;;;;;14.60;100.00;100774.56;5102821;27;20027;-77
2023/01/01 05:26:18;;;;;;;10.35;1.33;;;;;;;14.64;100.00;100776.00;5099942;27;20363;-77
2023/01/01 05:28:44;;;;;;;11.07;3.95;;;;;;;14.66;100.00;100774.84;5111935;27;20463;-77
2023/01/01 05:31:13;;;;;;;9.15;1.33;;;;;;;14.59;100.00;100770.03;5110240;27;20055;-77
2023/01/01 05:33:39;;;;;;;5.10;1.40;;;;;;;14.50;100.00;100775.44;5116672;27;20549;-77
2023/01/01 05:36:06;;;;;;;10.15;1.42;;;;;;;14.59;100.00;100778.31;5129494;27;20110;-77
2023/01/01 05:38:32;;;;;;;5.68;1.50;;;;;;;14.57;100.00;100792.22;5119903;27;20054;-77
2023/01/01 05:40:58;;;;;;;8.85;1.65;;;;;;;14.60;100.00;100814.00;5118587;27;20031;-76
2023/01/01 05:43:23;;;;;;;8.02;1.38;;;;;;;14.66;100.00;100821.69;5101698;27;20087;-77
2023/01/01 05:45:57;;;;;;;5.93;1.65;;;;;;;14.66;100.00;100804.31;5102533;28;20036;-77
2023/01/01 05:48:23;;;;;;;7.40;1.15;;;;;;;14.66;100.00;100798.78;5132610;27;20042;-77
2023/01/01 05:50:48;;;;;;;9.18;1.60;;;;;;;14.65;100.00;100802.56;5136247;27;20039;-76
2023/01/01 05:53:13;;;;;;;8.23;1.30;;;;;;;14.52;100.00;100808.34;5081738;28;20036;-77
2023/01/01 05:55:39;;;;;;;10.70;1.73;;;;;;;14.61;100.00;100812.13;5101923;27;20063;-77
2023/01/01 05:58:04;;;;;;;7.88;1.50;;;;;;;14.53;100.00;100821.97;5116027;27;20031;-77
2023/01/01 06:00:30;;;;;;;10.55;1.38;;;;;;;14.59;100.00;100830.66;5134461;27;20057;-77
2023/01/01 06:02:55;;;;;;;13.50;2.22;;;;;;;14.63;100.00;100837.66;5135890;27;20444;-77
2023/01/01 06:05:21;;;;;;;9.75;2.22;;;;;;;14.67;100.00;100848.22;5114504;27;20051;-76
2023/01/01 06:07:46;;;;;;;9.40;1.58;;;;;;;14.71;99.12;100846.06;5087803;27;20035;-77
2023/01/01 06:10:12;;;;;;;11.52;1.90;;;;;;;14.56;100.00;100855.75;5134450;27;20119;-77
2023/01/01 06:12:37;;;;;;;4.38;1.35;;;;;;;14.51;100.00;100856.19;5136870;27;20035;-77
2023/01/01 06:15:03;;;;;;;6.95;1.60;;;;;;;14.46;100.00;100867.69;5114386;27;20039;-77
2023/01/01 06:17:28;;;;;;;8.32;1.60;;;;;;;14.57;100.00;100861.13;5114548;27;20035;-77
2023/01/01 06:19:53;;;;;;;8.50;1.50;;;;;;;14.52;100.00;100856.03;5099498;27;20042;-77
2023/01/01 06:22:19;;;;;;;9.90;1.30;;;;;;;14.55;100.00;100870.56;5081897;28;20043;-77
2023/01/01 06:24:44;;;;;;;7.28;1.92;;;;;;;14.47;100.00;100863.03;5125961;27;20394;-77
2023/01/01 06:27:10;;;;;;;7.82;1.50;;;;;;;14.34;100.00;100863.31;5102193;27;20043;-77
2023/01/01 06:29:35;;;;;;;9.32;1.90;;;;;;;14.53;100.00;100868.81;5133450;27;20041;-77
2023/01/01 06:32:00;;;;;;;6.95;1.48;;;;;;;14.49;100.00;100855.47;5131890;27;20654;-77
2023/01/01 06:34:26;;;;;;;6.45;1.55;;;;;;;14.37;100.00;100859.41;5133548;27;20175;-76
2023/01/01 06:36:51;;;;;;;11.82;2.15;;;;;;;14.44;100.00;100863.31;5098743;27;20477;-77
2023/01/01 06:39:17;;;;;;;8.85;1.85;;;;;;;14.53;100.00;100876.22;5098981;27;20042;-77
2023/01/01 06:41:42;;;;;;;8.57;1.70;;;;;;;14.47;100.00;100871.28;5100001;27;20094;-76
2023/01/01 06:44:08;;;;;;;6.38;1.52;;;;;;;14.48;100.00;100876.66;5115284;27;20056;-77
2023/01/01 06:46:35;;;;;;;6.65;1.40;;;;;;;14.51;100.00;100901.16;5115997;27;20042;-77
2023/01/01 06:49:04;;;;;;;6.50;1.40;;;;;;;14.40;100.00;100903.22;5115497;27;20058;-77
2023/01/01 06:51:31;;;;;;;6.10;1.85;;;;;;;14.40;100.00;100919.75;5117003;27;20061;-77
2023/01/01 06:53:58;;;;;;;9.13;1.73;;;;;;;14.28;100.00;100924.50;5116647;27;20042;-77
2023/01/01 06:56:24;;;;;;;9.13;1.52;;;;;;;14.34;100.00;100933.03;5101157;27;20075;-77
2023/01/01 06:58:49;;;;;;;7.40;1.80;;;;;;;14.13;100.00;100938.72;5101335;27;20035;-78
2023/01/01 07:01:17;;;;;;;8.40;1.67;;;;;;;13.92;100.00;100948.91;5098478;27;20039;-77
2023/01/01 07:03:48;;;;;;;8.88;1.92;;;;;;;13.87;100.00;100965.00;5126888;27;20027;-77
2023/01/01 07:06:14;;;;;;;5.68;1.98;;;;;;;13.63;100.00;100963.47;5115662;27;20037;-77
2023/01/01 07:08:39;;;;;;;8.52;1.90;;;;;;;13.50;100.00;100979.34;5133542;27;20035;-77
2023/01/01 07:11:04;;;;;;;12.70;1.95;;;;;;;13.29;100.00;100971.97;5132448;27;20541;-77
2023/01/01 07:13:30;;;;;;;13.13;2.13;;;;;;;13.26;100.00;100983.22;5114887;27;20039;-77
2023/01/01 07:15:56;;;;;;;10.13;2.72;;;;;;;13.11;100.00;100977.22;5097891;27;20457;-76
2023/01/01 07:18:23;;;;;;;14.82;2.33;;;;;;;13.09;100.00;100964.63;5113525;27;20043;-78
2023/01/01 07:20:54;;;;;;;8.40;2.17;;;;;;;12.97;100.00;100972.94;5112596;27;20035;-76
2023/01/01 07:23:19;;;;;;;18.63;2.88;;;;;;;12.97;100.00;100974.78;5099089;27;20027;-76
2023/01/01 07:25:47;;;;;;;11.23;2.67;;;;;;;12.91;100.00;100991.84;5118115;27;20040;-78
2023/01/01 07:28:12;;;;;;;12.40;2.67;;;;;;;12.96;100.00;100998.66;5117395;27;20038;-77
2023/01/01 07:30:38;;;;;;;10.60;2.42;;;;;;;12.95;100.00;101009.78;5114386;27;20043;-77
2023/01/01 07:33:03;;;;;;;15.80;2.78;;;;;;;12.74;100.00;100999.69;5123169;27;20043;-77
2023/01/01 07:35:29;;;;;;;19.00;3.10;;;;;;;12.75;100.00;101011.53;5108988;27;20088;-78
2023/01/01 07:37:54;;;;;;;8.07;2.33;;;;;;;12.80;100.00;101012.84;5116196;27;20031;-76
2023/01/01 07:40:19;;;;;;;14.82;2.10;;;;;;;12.77;100.00;101006.75;5095401;28;20067;-77
2023/01/01 07:42:48;;;;;;;6.38;2.05;;;;;;;12.80;100.00;101032.09;5109823;27;20035;-77
2023/01/01 07:45:13;;;;;;;17.45;2.47;;;;;;;12.75;100.00;101025.25;5107339;27;20500;-77
2023/01/01 07:47:39;;;;;;;10.05;2.30;;;;;;;12.78;100.00;101027.75;5115104;27;20110;-77
2023/01/01 07:50:05;;;;;;;7.60;2.22;;;;;;;12.87;100.00;101032.44;5093449;28;20062;-77
2023/01/01 07:52:30;;;;;;;14.15;2.08;;;;;;;12.76;100.00;101013.28;5141969;27;20112;-77
2023/01/01 07:54:55;;;;;;;10.75;2.10;;;;;;;12.87;100.00;101032.44;5099342;28;20031;-77
2023/01/01 07:57:21;;;;;;;16.02;2.22;;;;;;;12.75;100.00;101028.88;5099660;28;20066;-77
2023/01/01 07:59:46;;;;;;;15.48;3.03;;;;;;;12.84;100.00;101028.09;5116263;28;20127;-77
2023/01/01 08:02:12;;;;;;;11.15;2.60;;;;;;;12.83;100.00;101022.72;5099429;28;20063;-77
2023/01/01 08:04:38;;;;;;;13.02;2.60;;;;;;;12.91;100.00;101033.94;5115064;28;20114;-77
2023/01/01 08:07:04;;;;;;;9.95;2.40;;;;;;;12.98;100.00;101040.63;5098059;28;20423;-77
2023/01/01 08:09:29;;;;;;;10.93;2.45;;;;;;;12.84;100.00;101040.97;5135576;27;20031;-77
2023/01/01 08:11:57;;;;;;;9.00;2.80;;;;;;;12.69;100.00;101037.63;5115713;28;20040;-77
2023/01/01 08:14:24;;;;;;;9.68;2.50;;;;;;;12.73;100.00;101054.75;5080784;28;20038;-77
2023/01/01 08:16:50;;;;;;;9.25;2.90;;;;;;;12.71;100.00;101052.13;5131458;28;20380;-77
2023/01/01 08:19:16;;;;;;;13.25;3.10;;;;;;;12.71;100.00;101059.47;5099730;28;20039;-78
2023/01/01 08:21:41;;;;;;;11.52;2.35;;;;;;;12.68;100.00;101055.13;5106381;28;20023;-78
2023/01/01 08:24:07;;;;;;;11.80;2.22;;;;;;;12.63;100.00;101063.75;5125242;28;20032;-78
2023/01/01 08:26:35;;;;;;;11.75;3.22;;;;;;;12.60;100.00;101058.53;5091341;28;20112;-79
2023/01/01 08:29:04;;;;;;;8.32;2.83;;;;;;;12.73;100.00;101063.84;5144699;28;20027;-79
2023/01/01 08:31:29;;;;;;;17.33;3.33;;;;;;;12.73;100.00;101071.25;5125607;28;20055;-78
2023/01/01 08:33:55;;;;;;;12.63;3.47;;;;;;;12.78;100.00;101067.09;5089102;28;20031;-79
2023/01/01 08:36:20;;;;;;;10.27;3.42;;;;;;;12.71;100.00;101085.09;5090107;27;20049;-79
2023/01/01 08:38:46;;;;;;;16.60;4.18;;;;;;;12.65;100.00;101091.09;5133683;28;20031;-79
2023/01/01 08:41:11;;;;;;;15.77;2.72;;;;;;;12.67;100.00;101109.22;5093673;28;20030;-79
2023/01/01 08:43:37;;;;;;;11.30;3.17;;;;;;;12.84;100.00;101112.41;5112043;28;20118;-78
2023/01/01 08:46:02;;;;;;;11.27;2.90;;;;;;;12.74;100.00;101127.91;5142516;27;20032;-79
2023/01/01 08:48:28;;;;;;;12.93;3.10;;;;;;;12.73;100.00;101139.94;5139294;27;20040;-78
2023/01/01 08:50:55;;;;;;;16.27;3.70;;;;;;;12.61;100.00;101142.69;5086523;28;20058;-79
2023/01/01 08:53:21;;;;;;;14.68;2.85;;;;;;;12.58;100.00;101129.22;5136633;28;20080;-78
2023/01/01 08:56:05;;;;;;;12.43;2.75;;;;;;;12.68;100.00;101121.06;5104814;28;20039;-79
2023/01/01 08:58:31;;;;;;;12.23;3.55;;;;;;;12.64;100.00;101134.19;5136700;28;20470;-79
2023/01/01 09:00:58;;;;;;;12.20;3.40;;;;;;;12.72;100.00;101147.28;5086350;27;20041;-78
2023/01/01 09:03:24;;;;;;;9.32;2.67;;;;;;;12.68;100.00;101143.91;5131276;27;20045;-79
2023/01/01 09:05:50;;;;;;;10.98;2.83;;;;;;;12.64;100.00;101128.72;5116671;27;20023;-78
2023/01/01 09:08:15;;;;;;;10.23;3.15;;;;;;;12.60;100.00;101129.94;5103906;28;20047;-78
2023/01/01 09:10:42;;;;;;;15.00;3.25;;;;;;;12.36;100.00;101121.88;5106654;27;20056;-77
2023/01/01 09:13:12;;;;;;;14.32;4.00;;;;;;;12.53;100.00;101125.09;5095898;27;20045;-78
2023/01/01 09:15:38;;;;;;;19.45;3.30;;;;;;;12.63;100.00;101126.94;5133091;27;20121;-78
2023/01/01 09:18:04;;;;;;;20.98;2.95;;;;;;;12.72;100.00;101129.94;5126504;27;20103;-80
2023/01/01 09:20:30;;;;;;;9.35;3.60;;;;;;;12.83;100.00;101129.91;5122736;27;20390;-78
2023/01/01 09:22:55;;;;;;;13.68;3.17;;;;;;;12.60;100.00;101146.44;5115192;27;20508;-78
2023/01/01 09:25:21;;;;;;;15.13;3.47;;;;;;;12.24;100.00;101177.78;5142557;27;20054;-78
2023/01/01 09:27:46;;;;;;;16.35;3.28;;;;;;;12.04;100.00;101169.28;5139964;27;20032;-78
2023/01/01 09:30:13;;;;;;;13.60;3.42;;;;;;;12.23;100.00;101154.06;5115565;27;20023;-78
2023/01/01 09:32:39;;;;;;;10.70;3.25;;;;;;;12.26;100.00;101146.47;5117208;27;20776;-78
2023/01/01 09:35:05;;;;;;;19.10;3.80;;;;;;;12.34;100.00;101140.34;5118314;27;20122;-78
2023/01/01 09:37:30;;;;;;;17.73;3.22;;;;;;;12.38;100.00;101152.84;5079182;27;20513;-78
2023/01/01 09:39:56;;;;;;;24.73;5.15;;;;;;;12.47;100.00;101164.94;5083905;27;20028;-78
2023/01/01 09:42:48;;;;;;;9.23;2.50;;;;;;;12.58;100.00;101162.19;5116804;27;20039;-78
2023/01/01 09:45:22;;;;;;;11.77;2.50;;;;;;;12.59;100.00;101152.94;5110157;27;20045;-78
2023/01/01 09:47:56;;;;;;;16.67;2.65;;;;;;;12.86;100.00;101162.63;5137515;27;20027;-78
2023/01/01 09:50:28;;;;;;;16.67;2.70;;;;;;;12.99;100.00;101165.22;5101830;27;20035;-77
2023/01/01 09:53:00;;;;;;;13.27;2.45;;;;;;;13.04;100.00;101176.69;5136720;27;20079;-78
2023/01/01 09:55:40;;;;;;;12.90;2.58;;;;;;;13.09;100.00;101163.41;5127305;27;20053;-77
2023/01/01 09:58:09;;;;;;;13.27;2.63;;;;;;;13.17;100.00;101171.03;5133318;27;20091;-78
2023/01/01 10:00:37;;;;;;;15.60;3.08;;;;;;;13.16;100.00;101172.03;5118483;27;20027;-78
2023/01/01 10:03:35;;;;;;;10.93;3.15;;;;;;;13.33;100.00;101176.09;5138761;27;20030;-78
2023/01/01 10:06:22;;;;;;;14.18;2.72;;;;;;;13.37;100.00;101169.34;5128219;27;20587;-79
2023/01/01 10:08:54;;;;;;;11.95;2.38;;;;;;;13.39;100.00;101168.19;5139303;27;20088;-79
2023/01/01 10:11:30;;;;;;;13.27;2.50;;;;;;;13.36;100.00;101164.84;5121700;27;20080;-78
2023/01/01 10:13:58;;;;;;;14.75;2.97;;;;;;;13.44;100.00;101159.56;5105708;27;20034;-79
2023/01/01 10:16:44;;;;;;;10.32;2.28;;;;;;;13.42;100.00;101162.44;5118618;27;20494;-79
2023/01/01 10:19:28;;;;;;;9.40;2.85;;;;;;;13.42;100.00;101161.56;5120073;27;20110;-79
2023/01/01 10:22:02;;;;;;;11.43;2.90;;;;;;;13.36;100.00;101154.72;5134732;27;20042;-79
2023/01/01 10:24:46;;;;;;;11.68;2.83;;;;;;;13.39;100.00;101154.44;5122546;27;20027;-79
2023/01/01 10:27:45;;;;;;;14.73;3.33;;;;;;;13.47;100.00;101145.53;5134565;27;20087;-78
2023/01/01 10:30:19;;;;;;;12.10;2.53;;;;;;;13.38;100.00;101149.97;5104628;27;20039;-79
2023/01/01 10:32:50;;;;;;;25.23;2.88;;;;;;;13.56;100.00;101146.59;5120549;28;20426;-79
2023/01/01 10:35:20;;;;;;;20.52;3.38;;;;;;;13.63;100.00;101160.72;5104937;28;20035;-79
2023/01/01 10:37:45;;;;;;;15.65;2.55;;;;;;;13.42;100.00;101151.44;5118962;28;20042;-78
2023/01/01 10:40:18;;;;;;;10.35;3.15;;;;;;;13.49;100.00;101150.91;5119941;28;20019;-78
2023/01/01 10:42:50;;;;;;;13.20;3.28;;;;;;;13.67;100.00;101159.44;5096506;28;20020;-78
2023/01/01 10:45:42;;;;;;;16.42;3.42;;;;;;;13.85;100.00;101163.31;5119554;28;20042;-79
2023/01/01 10:48:24;;;;;;;18.42;3.63;;;;;;;13.99;100.00;101170.38;5103108;28;20043;-78
2023/01/01 10:50:51;;;;;;;12.85;2.97;;;;;;;14.00;100.00;101161.06;5118750;28;20040;-79
2023/01/01 10:53:25;;;;;;;10.82;3.05;;;;;;;13.91;100.00;101165.53;5119582;28;20142;-78
2023/01/01 10:55:58;;;;;;;22.60;3.50;;;;;;;13.94;100.00;101164.41;5120678;28;20032;-78
2023/01/01 10:58:36;;;;;;;10.75;4.20;;;;;;;13.84;100.00;101164.34;5098847;28;20031;-78
2023/01/01 11:01:04;;;;;;;10.35;3.80;;;;;;;13.85;100.00;101168.81;5108169;28;20091;-79
2023/01/01 11:03:29;;;;;;;15.00;2.92;;;;;;;13.75;100.00;101174.25;5113872;28;20032;-78
2023/01/01 11:06:09;;;;;;;17.13;3.25;;;;;;;13.74;100.00;101158.78;5118409;28;20096;-78
2023/01/01 11:08:38;;;;;;;24.08;4.50;;;;;;;13.84;100.00;101168.94;5122432;28;20063;-78
2023/01/01 11:11:04;;;;;;;18.88;3.50;;;;;;;13.95;100.00;101171.63;5113098;28;20503;-78
2023/01/01 11:13:31;;;;;;;13.63;3.28;;;;;;;13.85;100.00;101174.31;5113286;28;20031;-78
2023/01/01 11:15:57;;;;;;;20.75;3.13;;;;;;;13.85;100.00;101182.56;5099097;28;20035;-78
2023/01/01 11:18:34;;;;;;;19.30;3.08;;;;;;;13.79;100.00;101195.00;5103046;28;20027;-78
2023/01/01 11:21:01;;;;;;;12.23;3.22;;;;;;;14.05;100.00;101193.72;5119781;28;20035;-78
2023/01/01 11:23:38;;;;;;;12.52;3.42;;;;;;;14.03;100.00;101196.59;5119684;28;20402;-78
2023/01/01 11:26:17;;;;;;;11.98;2.80;;;;;;;14.33;100.00;101201.28;5119211;28;20039;-78
2023/01/01 11:29:04;;;;;;;15.73;3.90;;;;;;;14.25;100.00;101202.94;5118749;28;20558;-77
2023/01/01 11:31:36;;;;;;;20.20;3.17;;;;;;;14.24;100.00;101203.97;5117876;28;20051;-78
2023/01/01 11:34:03;;;;;;;19.23;5.32;;;;;;;14.10;100.00;101202.44;5116576;28;20424;-78
2023/01/01 11:36:33;;;;;;;10.68;3.58;;;;;;;14.01;100.00;101209.63;5119053;28;20060;-77